createdAt,value
2018-12-09T00:00:34.351Z,1.07
2018-12-09T00:03:00.299Z,1.17
2018-12-09T00:05:27.020Z,1.00
2018-12-09T00:07:53.729Z,1.10
2018-12-09T00:10:19.733Z,1.60
2018-12-09T00:12:45.780Z,1.20
2018-12-09T00:15:11.932Z,0.80
2018-12-09T00:17:38.643Z,1.90
2018-12-09T00:20:04.616Z,1.23
2018-12-09T00:22:30.637Z,0.80
2018-12-09T00:24:57.341Z,1.43
2018-12-09T00:27:23.336Z,1.10
2018-12-09T00:29:49.312Z,1.37
2018-12-09T00:32:16.101Z,0.97
2018-12-09T00:34:42.091Z,1.57
2018-12-09T00:37:08.805Z,1.20
2018-12-09T00:39:34.779Z,1.10
2018-12-09T00:42:00.769Z,1.20
2018-12-09T00:44:27.477Z,1.30
2018-12-09T00:46:53.471Z,1.50
2018-12-09T00:49:19.442Z,1.47
2018-12-09T00:51:46.157Z,1.77
2018-12-09T00:54:12.162Z,1.23
2018-12-09T00:56:38.126Z,1.20
2018-12-09T00:59:04.863Z,1.47
2018-12-09T01:01:30.839Z,1.60
2018-12-09T01:03:56.802Z,1.03
2018-12-09T01:06:22.780Z,1.40
2018-12-09T01:08:48.792Z,1.50
2018-12-09T01:11:14.788Z,1.53
2018-12-09T01:13:40.777Z,2.30
2018-12-09T01:16:06.755Z,1.03
2018-12-09T01:18:33.471Z,1.33
2018-12-09T01:20:59.422Z,0.80
2018-12-09T01:23:26.096Z,0.80
2018-12-09T01:25:52.055Z,0.43
2018-12-09T01:28:18.769Z,0.50
2018-12-09T01:30:44.748Z,0.27
2018-12-09T01:33:11.185Z,0.40
2018-12-09T01:35:37.179Z,0.57
2018-12-09T01:38:03.888Z,0.67
2018-12-09T01:40:29.908Z,0.90
2018-12-09T01:42:55.862Z,1.17
2018-12-09T01:45:21.924Z,0.77
2018-12-09T01:47:47.928Z,1.17
2018-12-09T01:50:13.935Z,1.27
2018-12-09T01:52:39.926Z,1.30
2018-12-09T01:55:05.938Z,1.57
2018-12-09T01:57:31.919Z,1.30
2018-12-09T01:59:57.943Z,2.10
2018-12-09T02:02:23.912Z,1.33
2018-12-09T02:04:49.913Z,1.50
2018-12-09T02:07:15.896Z,1.00
2018-12-09T02:09:42.656Z,1.70
2018-12-09T02:12:08.631Z,1.00
2018-12-09T02:14:34.572Z,0.70
2018-12-09T02:17:01.306Z,1.03
2018-12-09T02:19:28.027Z,0.50
2018-12-09T02:21:54.038Z,0.70
2018-12-09T02:24:20.793Z,0.40
2018-12-09T02:26:46.811Z,0.47
2018-12-09T02:29:12.818Z,0.30
2018-12-09T02:31:38.809Z,0.40
2018-12-09T02:34:04.789Z,0.30
2018-12-09T02:36:31.565Z,0.40
2018-12-09T02:38:57.550Z,0.20
2018-12-09T02:41:23.593Z,0.20
2018-12-09T02:43:49.563Z,0.30
2018-12-09T02:46:15.574Z,0.40
2018-12-09T02:48:41.530Z,0.50
2018-12-09T02:51:07.582Z,0.30
2018-12-09T02:53:34.310Z,0.40
2018-12-09T02:56:00.255Z,0.20
2018-12-09T02:58:26.283Z,0.53
2018-12-09T03:00:52.239Z,0.60
2018-12-09T03:03:18.265Z,0.40
2018-12-09T03:05:44.213Z,0.80
2018-12-09T03:08:10.223Z,0.50
2018-12-09T03:10:36.910Z,0.50
2018-12-09T03:13:02.903Z,0.50
2018-12-09T03:15:28.862Z,0.40
2018-12-09T03:17:55.606Z,0.60
2018-12-09T03:20:22.310Z,0.50
2018-12-09T03:22:48.305Z,0.10
2018-12-09T03:25:14.295Z,0.43
2018-12-09T03:27:41.029Z,0.40
2018-12-09T03:30:07.766Z,0.30
2018-12-09T03:32:34.480Z,0.40
2018-12-09T03:35:00.459Z,0.60
2018-12-09T03:37:26.420Z,0.37
2018-12-09T03:39:52.422Z,0.47
2018-12-09T03:42:18.415Z,0.50
2018-12-09T03:44:44.423Z,0.30
2018-12-09T03:47:11.138Z,0.40
2018-12-09T03:49:37.133Z,0.40
2018-12-09T03:52:03.831Z,0.33
2018-12-09T03:54:30.550Z,0.30
2018-12-09T03:56:56.530Z,0.43
2018-12-09T03:59:22.954Z,0.53
2018-12-09T04:01:48.858Z,0.20
2018-12-09T04:04:14.854Z,0.57
2018-12-09T04:06:40.812Z,0.30
2018-12-09T04:09:06.821Z,0.27
2018-12-09T04:11:33.535Z,0.40
2018-12-09T04:13:59.519Z,0.50
2018-12-09T04:16:25.492Z,0.53
2018-12-09T04:18:52.231Z,0.37
2018-12-09T04:21:18.949Z,0.30
2018-12-09T04:23:45.711Z,0.60
2018-12-09T04:26:11.696Z,0.40
2018-12-09T04:28:37.672Z,0.63
2018-12-09T04:31:04.427Z,0.40
2018-12-09T04:33:30.515Z,0.30
2018-12-09T04:35:56.452Z,0.40
2018-12-09T04:38:23.166Z,0.43
2018-12-09T04:40:49.164Z,0.43
2018-12-09T04:43:15.119Z,0.50
2018-12-09T04:45:41.114Z,0.43
2018-12-09T04:48:07.088Z,0.27
2018-12-09T04:50:33.141Z,0.53
2018-12-09T04:52:59.107Z,0.40
2018-12-09T04:55:25.078Z,0.30
2018-12-09T04:57:51.060Z,0.50
2018-12-09T05:00:17.166Z,0.30
2018-12-09T05:02:43.149Z,0.20
2018-12-09T05:05:09.137Z,0.37
2018-12-09T05:07:35.884Z,0.30
2018-12-09T05:10:02.611Z,0.50
2018-12-09T05:12:28.603Z,0.43
2018-12-09T05:14:54.564Z,0.30
2018-12-09T05:17:20.642Z,0.50
2018-12-09T05:19:46.607Z,0.40
2018-12-09T05:22:12.630Z,0.50
2018-12-09T05:24:38.628Z,0.30
2018-12-09T05:27:04.646Z,0.20
2018-12-09T05:29:30.644Z,0.23
2018-12-09T05:31:56.700Z,0.97
2018-12-09T05:34:22.678Z,0.50
2018-12-09T05:36:48.685Z,0.73
2018-12-09T05:39:15.399Z,0.70
2018-12-09T05:41:41.387Z,0.37
2018-12-09T05:44:07.405Z,0.47
2018-12-09T05:46:33.429Z,0.50
2018-12-09T05:48:59.453Z,0.40
2018-12-09T05:51:25.415Z,0.37
2018-12-09T05:53:51.423Z,0.40
2018-12-09T05:56:17.395Z,0.63
2018-12-09T05:58:44.141Z,0.50
2018-12-09T06:01:10.856Z,0.50
2018-12-09T06:03:36.982Z,0.40
2018-12-09T06:06:02.899Z,0.30
2018-12-09T06:08:28.870Z,0.50
2018-12-09T06:10:54.815Z,0.30
2018-12-09T06:13:20.793Z,0.30
2018-12-09T06:15:47.506Z,0.33
2018-12-09T06:18:13.474Z,0.20
2018-12-09T06:20:39.476Z,0.50
2018-12-09T06:23:06.186Z,0.20
2018-12-09T06:25:32.170Z,0.30
2018-12-09T06:27:58.185Z,0.40
2018-12-09T06:30:24.158Z,0.23
2018-12-09T06:32:50.135Z,0.33
2018-12-09T06:35:16.135Z,0.20
2018-12-09T06:37:42.840Z,0.30
2018-12-09T06:40:08.854Z,0.20
2018-12-09T06:42:35.609Z,0.30
2018-12-09T06:45:01.673Z,0.20
2018-12-09T06:47:27.630Z,0.10
2018-12-09T06:49:53.627Z,0.10
2018-12-09T06:52:19.625Z,0.10
2018-12-09T06:54:46.355Z,0.17
2018-12-09T06:57:12.381Z,0.10
2018-12-09T06:59:39.122Z,0.20
2018-12-09T07:02:05.936Z,0.10
2018-12-09T07:04:32.006Z,0.10
2018-12-09T07:06:57.979Z,0.20
2018-12-09T07:09:23.965Z,0.17
2018-12-09T07:11:49.990Z,0.50
2018-12-09T07:14:16.670Z,0.30
2018-12-09T07:16:42.676Z,0.33
2018-12-09T07:19:08.648Z,0.30
2018-12-09T07:21:34.617Z,0.40
2018-12-09T07:24:00.625Z,0.13
2018-12-09T07:26:26.675Z,0.30
2018-12-09T07:28:52.635Z,0.20
2018-12-09T07:31:18.752Z,0.23
2018-12-09T07:33:44.736Z,0.40
2018-12-09T07:36:10.699Z,0.30
2018-12-09T07:38:36.691Z,0.33
2018-12-09T07:41:03.453Z,0.30
2018-12-09T07:43:29.456Z,0.30
2018-12-09T07:45:55.400Z,0.17
2018-12-09T07:48:21.372Z,0.40
2018-12-09T07:50:47.402Z,0.30
2018-12-09T07:53:13.393Z,0.23
2018-12-09T07:55:40.101Z,0.30
2018-12-09T07:58:06.093Z,0.10
2018-12-09T08:00:32.058Z,0.20
2018-12-09T08:02:58.107Z,0.20
2018-12-09T08:05:24.874Z,0.50
2018-12-09T08:07:50.924Z,0.50
2018-12-09T08:10:16.931Z,0.80
2018-12-09T08:12:42.896Z,0.40
2018-12-09T08:15:08.872Z,0.30
2018-12-09T08:17:34.867Z,0.60
2018-12-09T08:20:01.579Z,0.57
2018-12-09T08:22:27.567Z,0.50
2018-12-09T08:24:53.563Z,0.50
2018-12-09T08:27:20.263Z,0.60
2018-12-09T08:29:46.219Z,0.60
2018-12-09T08:32:12.919Z,0.90
2018-12-09T08:34:38.892Z,0.53
2018-12-09T08:37:04.873Z,0.57
2018-12-09T08:39:30.850Z,0.50
2018-12-09T08:41:56.811Z,0.57
2018-12-09T08:44:22.816Z,0.57
2018-12-09T08:46:48.787Z,0.40
2018-12-09T08:49:14.752Z,0.37
2018-12-09T08:51:40.728Z,0.70
2018-12-09T08:54:07.447Z,0.37
2018-12-09T08:56:33.434Z,0.50
2018-12-09T08:58:59.504Z,0.70
2018-12-09T09:01:25.536Z,0.53
2018-12-09T09:03:52.269Z,0.33
2018-12-09T09:06:18.275Z,0.40
2018-12-09T09:08:44.250Z,0.60
2018-12-09T09:11:10.251Z,0.47
2018-12-09T09:13:36.212Z,0.50
2018-12-09T09:16:02.224Z,0.87
2018-12-09T09:18:28.208Z,0.50
2018-12-09T09:20:54.222Z,0.57
2018-12-09T09:23:20.958Z,0.77
2018-12-09T09:25:46.936Z,0.50
2018-12-09T09:28:12.936Z,1.00
2018-12-09T09:30:39.647Z,0.50
2018-12-09T09:33:05.666Z,0.73
2018-12-09T09:35:31.644Z,0.50
2018-12-09T09:37:58.377Z,0.53
2018-12-09T09:40:25.084Z,0.80
2018-12-09T09:42:51.835Z,0.60
2018-12-09T09:45:18.536Z,0.70
2018-12-09T09:47:44.552Z,1.17
2018-12-09T09:50:12.049Z,0.63
2018-12-09T09:52:36.535Z,0.77
2018-12-09T09:55:03.285Z,1.00
2018-12-09T09:57:30.013Z,0.80
2018-12-09T09:59:55.974Z,0.60
2018-12-09T10:02:21.951Z,0.70
2018-12-09T10:04:47.923Z,1.20
2018-12-09T10:07:13.885Z,0.70
2018-12-09T10:09:39.864Z,0.87
2018-12-09T10:12:05.830Z,0.87
2018-12-09T10:14:31.851Z,0.90
2018-12-09T10:16:57.804Z,1.00
2018-12-09T10:19:24.530Z,0.90
2018-12-09T10:21:50.516Z,0.73
2018-12-09T10:24:16.839Z,1.10
2018-12-09T10:26:42.837Z,1.00
2018-12-09T10:29:09.567Z,0.60
2018-12-09T10:31:35.552Z,0.90
2018-12-09T10:34:01.530Z,0.67
2018-12-09T10:36:27.536Z,1.00
2018-12-09T10:38:54.249Z,0.60
2018-12-09T10:41:20.228Z,0.80
2018-12-09T10:43:46.935Z,0.93
2018-12-09T10:46:12.898Z,0.80
2018-12-09T10:48:38.882Z,0.47
2018-12-09T10:51:05.691Z,0.70
2018-12-09T10:53:32.485Z,0.57
2018-12-09T10:55:59.330Z,0.40
2018-12-09T10:58:25.715Z,0.50
2018-12-09T11:00:51.709Z,0.27
2018-12-09T11:03:17.720Z,0.50
2018-12-09T11:05:43.681Z,0.43
2018-12-09T11:08:09.685Z,0.57
2018-12-09T11:10:35.673Z,0.87
2018-12-09T11:13:01.693Z,0.60
2018-12-09T11:15:28.401Z,0.77
2018-12-09T11:17:54.417Z,0.70
2018-12-09T11:20:20.381Z,0.60
2018-12-09T11:22:47.110Z,0.70
2018-12-09T11:25:13.839Z,0.63
2018-12-09T11:27:39.824Z,0.60
2018-12-09T11:30:05.790Z,0.83
2018-12-09T11:32:31.840Z,0.80
2018-12-09T11:34:58.535Z,0.30
2018-12-09T11:37:24.498Z,0.30
2018-12-09T11:39:51.234Z,0.13
2018-12-09T11:42:17.927Z,0.13
2018-12-09T11:44:43.938Z,0.20
2018-12-09T11:47:09.894Z,0.37
2018-12-09T11:49:35.863Z,0.33
2018-12-09T11:52:01.804Z,0.30
2018-12-09T11:54:27.784Z,0.23
2018-12-09T11:56:54.490Z,0.17
2018-12-09T11:59:20.467Z,0.43
2018-12-09T12:01:46.458Z,0.20
2018-12-09T12:04:13.209Z,0.43
2018-12-09T12:06:39.234Z,0.20
2018-12-09T12:09:06.235Z,0.33
2018-12-09T12:11:32.211Z,0.20
2018-12-09T12:13:58.925Z,0.30
2018-12-09T12:16:24.926Z,0.20
2018-12-09T12:18:50.907Z,0.37
2018-12-09T12:21:16.902Z,0.10
2018-12-09T12:23:43.617Z,0.30
2018-12-09T12:26:09.647Z,0.60
2018-12-09T12:28:35.612Z,0.20
2018-12-09T12:31:01.614Z,0.33
2018-12-09T12:33:28.342Z,0.37
2018-12-09T12:35:54.326Z,0.50
2018-12-09T12:38:20.293Z,0.60
2018-12-09T12:40:46.302Z,0.43
2018-12-09T12:43:12.270Z,0.73
2018-12-09T12:45:38.241Z,1.03
2018-12-09T12:48:04.245Z,0.80
2018-12-09T12:50:30.232Z,0.90
2018-12-09T12:52:56.962Z,0.93
2018-12-09T12:55:23.679Z,0.80
2018-12-09T12:57:49.660Z,0.60
2018-12-09T13:00:15.661Z,0.47
2018-12-09T13:02:41.656Z,0.30
2018-12-09T13:05:09.146Z,0.47
2018-12-09T13:07:34.447Z,0.37
2018-12-09T13:10:00.423Z,0.60
2018-12-09T13:12:26.433Z,1.47
2018-12-09T13:14:52.420Z,0.60
2018-12-09T13:17:18.431Z,0.73
2018-12-09T13:19:45.122Z,0.83
2018-12-09T13:22:11.113Z,0.80
2018-12-09T13:24:37.072Z,0.70
2018-12-09T13:27:03.041Z,1.00
2018-12-09T13:29:29.024Z,0.70
2018-12-09T13:31:54.992Z,0.97
2018-12-09T13:34:20.995Z,0.67
2018-12-09T13:36:47.709Z,0.40
2018-12-09T13:39:13.722Z,0.70
2018-12-09T13:41:39.680Z,0.27
2018-12-09T13:44:06.422Z,0.80
2018-12-09T13:46:32.381Z,0.80
2018-12-09T13:48:58.382Z,0.47
2018-12-09T13:51:24.364Z,0.57
2018-12-09T13:53:50.385Z,0.67
2018-12-09T13:56:16.389Z,0.70
2018-12-09T13:58:42.385Z,0.40
2018-12-09T14:01:08.351Z,0.40
2018-12-09T14:03:34.349Z,0.67
2018-12-09T14:06:00.308Z,0.50
2018-12-09T14:08:26.272Z,0.40
2018-12-09T14:10:52.308Z,0.60
2018-12-09T14:13:18.277Z,1.00
2018-12-09T14:15:44.292Z,0.50
2018-12-09T14:18:10.241Z,0.80
2018-12-09T14:20:36.988Z,0.70
2018-12-09T14:23:03.000Z,0.63
2018-12-09T14:25:29.314Z,0.67
2018-12-09T14:27:55.293Z,0.90
2018-12-09T14:30:21.305Z,1.20
2018-12-09T14:32:47.996Z,0.80
2018-12-09T14:35:14.014Z,1.37
2018-12-09T14:37:39.988Z,0.70
2018-12-09T14:40:06.029Z,1.57
2018-12-09T14:42:32.023Z,1.07
2018-12-09T14:44:58.731Z,0.80
2018-12-09T14:47:24.746Z,0.43
2018-12-09T14:49:50.703Z,0.70
2018-12-09T14:52:16.781Z,1.30
2018-12-09T14:54:42.752Z,1.33
2018-12-09T14:57:08.809Z,1.00
2018-12-09T14:59:34.785Z,1.00
2018-12-09T15:02:00.811Z,1.50
2018-12-09T15:04:26.783Z,0.90
2018-12-09T15:06:52.776Z,0.90
2018-12-09T15:09:18.736Z,1.17
2018-12-09T15:11:44.742Z,1.27
2018-12-09T15:14:10.698Z,1.20
2018-12-09T15:16:36.687Z,1.73
2018-12-09T15:19:02.677Z,1.53
2018-12-09T15:21:28.642Z,1.37
2018-12-09T15:23:54.636Z,0.63
2018-12-09T15:26:21.338Z,0.60
2018-12-09T15:28:47.331Z,1.17
2018-12-09T15:31:13.287Z,1.30
2018-12-09T15:33:39.292Z,1.20
2018-12-09T15:36:05.254Z,1.60
2018-12-09T15:38:31.230Z,1.00
2018-12-09T15:40:57.177Z,1.23
2018-12-09T15:43:23.180Z,1.33
2018-12-09T15:45:49.140Z,0.87
2018-12-09T15:48:15.187Z,1.27
2018-12-09T15:50:41.888Z,1.83
2018-12-09T15:53:07.849Z,1.30
2018-12-09T15:55:34.547Z,0.77
2018-12-09T15:58:00.544Z,0.67
2018-12-09T16:00:26.487Z,0.70
2018-12-09T16:02:52.459Z,0.50
2018-12-09T16:05:19.174Z,0.83
2018-12-09T16:07:45.135Z,0.80
2018-12-09T16:10:11.124Z,1.67
2018-12-09T16:12:37.065Z,1.00
2018-12-09T16:15:03.806Z,1.03
2018-12-09T16:17:30.503Z,1.00
2018-12-09T16:19:56.495Z,1.27
2018-12-09T16:22:22.446Z,0.63
2018-12-09T16:24:48.435Z,0.90
2018-12-09T16:27:14.394Z,0.80
2018-12-09T16:29:40.370Z,1.40
2018-12-09T16:32:06.330Z,1.30
2018-12-09T16:34:32.311Z,0.80
2018-12-09T16:36:58.268Z,1.13
2018-12-09T16:39:24.220Z,0.87
2018-12-09T16:41:50.189Z,0.97
2018-12-09T16:44:16.150Z,1.57
2018-12-09T16:46:42.125Z,1.37
2018-12-09T16:49:08.098Z,1.20
2018-12-09T16:51:34.080Z,1.10
2018-12-09T16:54:00.037Z,0.80
2018-12-09T16:56:26.019Z,1.07
2018-12-09T16:58:51.974Z,1.37
2018-12-09T17:01:17.944Z,1.50
2018-12-09T17:03:44.640Z,1.23
2018-12-09T17:06:10.631Z,1.17
2018-12-09T17:08:36.574Z,1.03
2018-12-09T17:11:02.543Z,1.13
2018-12-09T17:13:28.507Z,0.37
2018-12-09T17:15:54.507Z,0.77
2018-12-09T17:18:21.220Z,1.03
2018-12-09T17:20:47.214Z,1.13
2018-12-09T17:23:13.175Z,1.23
2018-12-09T17:25:39.138Z,0.87
2018-12-09T17:28:05.121Z,1.30
2018-12-09T17:30:31.826Z,1.10
2018-12-09T17:32:57.797Z,0.83
2018-12-09T17:35:24.493Z,0.83
2018-12-09T17:37:50.468Z,1.20
2018-12-09T17:40:16.415Z,0.70
2018-12-09T17:42:42.437Z,0.80
2018-12-09T17:45:08.389Z,0.60
2018-12-09T17:47:34.356Z,0.93
2018-12-09T17:50:00.339Z,0.80
2018-12-09T17:52:26.292Z,1.10
2018-12-09T17:54:53.002Z,1.27
2018-12-09T17:57:18.968Z,1.00
2018-12-09T17:59:44.952Z,0.67
2018-12-09T18:02:10.905Z,1.60
2018-12-09T18:04:37.625Z,1.23
2018-12-09T18:07:03.618Z,1.20
2018-12-09T18:09:29.716Z,1.67
2018-12-09T18:11:55.730Z,1.43
2018-12-09T18:14:21.751Z,1.10
2018-12-09T18:16:47.696Z,1.10
2018-12-09T18:19:13.695Z,1.30
2018-12-09T18:21:39.732Z,1.13
2018-12-09T18:24:05.782Z,0.87
2018-12-09T18:26:32.553Z,0.77
2018-12-09T18:28:59.250Z,1.17
2018-12-09T18:31:25.235Z,1.07
2018-12-09T18:33:51.935Z,0.10
2018-12-09T18:36:17.934Z,0.63
2018-12-09T18:38:43.891Z,1.23
2018-12-09T18:41:09.887Z,0.40
2018-12-09T18:43:35.852Z,0.80
2018-12-09T18:46:01.836Z,0.53
2018-12-09T18:48:28.560Z,1.33
2018-12-09T18:50:54.536Z,0.70
2018-12-09T18:53:20.528Z,0.63
2018-12-09T18:55:46.510Z,0.70
2018-12-09T18:58:12.468Z,0.67
2018-12-09T19:00:38.455Z,1.10
2018-12-09T19:03:04.447Z,0.77
2018-12-09T19:05:30.416Z,1.20
2018-12-09T19:07:56.393Z,0.77
2018-12-09T19:10:23.096Z,1.00
2018-12-09T19:12:49.099Z,0.60
2018-12-09T19:15:15.082Z,0.73
2018-12-09T19:17:41.799Z,0.70
2018-12-09T19:20:07.766Z,0.87
2018-12-09T19:22:34.507Z,0.70
2018-12-09T19:25:00.471Z,0.70
2018-12-09T19:27:26.459Z,0.63
2018-12-09T19:29:52.415Z,0.30
2018-12-09T19:32:18.401Z,0.63
2018-12-09T19:34:44.378Z,0.80
2018-12-09T19:37:10.354Z,0.63
2018-12-09T19:39:36.341Z,0.50
2018-12-09T19:42:02.333Z,0.70
2018-12-09T19:44:28.330Z,0.73
2018-12-09T19:46:54.285Z,0.67
2018-12-09T19:49:20.257Z,0.80
2018-12-09T19:51:46.935Z,0.40
2018-12-09T19:54:13.668Z,1.00
2018-12-09T19:56:39.629Z,0.63
2018-12-09T19:59:05.613Z,0.40
2018-12-09T20:01:31.565Z,0.57
2018-12-09T20:03:57.575Z,0.50
2018-12-09T20:06:23.529Z,0.60
2018-12-09T20:08:50.250Z,0.70
2018-12-09T20:11:16.185Z,0.67
2018-12-09T20:13:42.926Z,0.87
2018-12-09T20:16:08.882Z,0.53
2018-12-09T20:18:34.843Z,1.00
2018-12-09T20:21:00.816Z,0.57
2018-12-09T20:23:26.763Z,0.40
2018-12-09T20:25:52.806Z,0.40
2018-12-09T20:28:18.783Z,0.60
2018-12-09T20:30:45.498Z,0.50
2018-12-09T20:33:11.432Z,0.57
2018-12-09T20:35:37.414Z,0.40
2018-12-09T20:38:03.392Z,0.70
2018-12-09T20:40:29.376Z,0.37
2018-12-09T20:42:55.334Z,0.50
2018-12-09T20:45:22.047Z,0.80
2018-12-09T20:47:48.006Z,0.50
2018-12-09T20:50:14.718Z,0.90
2018-12-09T20:52:40.657Z,0.70
2018-12-09T20:55:07.343Z,0.50
2018-12-09T20:57:33.346Z,0.80
2018-12-09T20:59:59.353Z,0.83
2018-12-09T21:02:32.182Z,0.90
2018-12-09T21:04:58.226Z,0.80
2018-12-09T21:07:25.229Z,0.90
2018-12-09T21:09:50.414Z,0.87
2018-12-09T21:12:16.405Z,1.20
2018-12-09T21:14:42.355Z,1.17
2018-12-09T21:17:09.085Z,0.40
2018-12-09T21:19:35.786Z,1.00
2018-12-09T21:22:01.764Z,0.70
2018-12-09T21:24:27.753Z,0.53
2018-12-09T21:26:53.812Z,0.40
2018-12-09T21:29:19.787Z,0.30
2018-12-09T21:31:45.772Z,0.53
2018-12-09T21:34:11.787Z,0.30
2018-12-09T21:36:37.740Z,0.47
2018-12-09T21:39:03.738Z,0.30
2018-12-09T21:41:29.690Z,0.37
2018-12-09T21:43:55.661Z,0.37
2018-12-09T21:46:21.619Z,0.50
2018-12-09T21:48:47.593Z,0.87
2018-12-09T21:51:14.286Z,0.20
2018-12-09T21:53:40.261Z,0.30
2018-12-09T21:56:06.956Z,0.40
2018-12-09T21:58:32.937Z,0.27
2018-12-09T22:00:58.896Z,0.70
2018-12-09T22:03:24.988Z,0.50
2018-12-09T22:05:50.972Z,0.43
2018-12-09T22:08:16.928Z,0.60
2018-12-09T22:10:43.635Z,0.50
2018-12-09T22:13:09.609Z,0.50
2018-12-09T22:15:35.611Z,0.67
2018-12-09T22:18:02.294Z,0.40
2018-12-09T22:20:28.384Z,0.27
2018-12-09T22:22:54.280Z,0.50
2018-12-09T22:25:20.993Z,0.40
2018-12-09T22:27:46.947Z,0.40
2018-12-09T22:30:13.680Z,0.47
2018-12-09T22:32:39.662Z,0.33
2018-12-09T22:35:05.591Z,0.50
2018-12-09T22:37:31.593Z,0.50
2018-12-09T22:39:57.560Z,0.70
2018-12-09T22:42:23.541Z,0.50
2018-12-09T22:44:49.511Z,0.83
2018-12-09T22:47:15.476Z,1.33
2018-12-09T22:49:41.436Z,0.70
2018-12-09T22:52:07.412Z,1.43
2018-12-09T22:54:33.360Z,0.57
2018-12-09T22:56:59.367Z,0.70
2018-12-09T22:59:25.323Z,0.90
2018-12-09T23:01:51.304Z,0.40
2018-12-09T23:04:17.284Z,0.70
2018-12-09T23:06:43.256Z,0.87
2018-12-09T23:09:09.253Z,0.60
2018-12-09T23:11:35.976Z,0.57
2018-12-09T23:14:01.949Z,0.50
2018-12-09T23:16:27.894Z,0.33
2018-12-09T23:18:53.866Z,0.33
2018-12-09T23:21:20.560Z,0.70
2018-12-09T23:23:46.587Z,0.63
2018-12-09T23:26:12.553Z,0.87
2018-12-09T23:28:39.254Z,0.73
2018-12-09T23:31:05.310Z,0.50
2018-12-09T23:33:32.011Z,1.27
2018-12-09T23:35:57.964Z,0.60
2018-12-09T23:38:24.695Z,0.67
2018-12-09T23:40:50.673Z,0.60
2018-12-09T23:43:16.638Z,0.83
2018-12-09T23:45:42.615Z,1.00
2018-12-09T23:48:08.680Z,1.07
2018-12-09T23:50:34.629Z,0.60
2018-12-09T23:53:01.318Z,1.10
2018-12-09T23:55:27.299Z,0.43
2018-12-09T23:57:53.266Z,0.80
